sensor_id;sensor_type;location;lat;lon;timestamp;temperature;humidity
54264;DHT22;40178;53.042;6.406;2023-03-01T00:01:45;-1.80;99.90
54264;DHT22;40178;53.042;6.406;2023-03-01T00:04:10;-1.70;99.90
54264;DHT22;40178;53.042;6.406;2023-03-01T00:06:36;-1.80;99.90
54264;DHT22;40178;53.042;6.406;2023-03-01T00:09:03;-1.70;99.90
54264;DHT22;40178;53.042;6.406;2023-03-01T00:11:30;-1.70;99.90
54264;DHT22;40178;53.042;6.406;2023-03-01T00:13:59;-1.80;99.90
54264;DHT22;40178;53.042;6.406;2023-03-01T00:16:38;-1.90;99.90
54264;DHT22;40178;53.042;6.406;2023-03-01T00:19:05;-1.90;99.90
54264;DHT22;40178;53.042;6.406;2023-03-01T00:21:31;-1.90;99.90
54264;DHT22;40178;53.042;6.406;2023-03-01T00:23:57;-1.90;99.90
54264;DHT22;40178;53.042;6.406;2023-03-01T00:26:24;-1.80;99.90
54264;DHT22;40178;53.042;6.406;2023-03-01T00:28:51;-2.00;99.90
54264;DHT22;40178;53.042;6.406;2023-03-01T00:31:22;-2.00;99.90
54264;DHT22;40178;53.042;6.406;2023-03-01T00:33:48;-2.00;99.90
54264;DHT22;40178;53.042;6.406;2023-03-01T00:36:15;-2.00;99.90
54264;DHT22;40178;53.042;6.406;2023-03-01T00:38:45;-2.10;99.90
54264;DHT22;40178;53.042;6.406;2023-03-01T00:41:14;-2.10;99.90
54264;DHT22;40178;53.042;6.406;2023-03-01T00:43:40;-2.10;99.90
54264;DHT22;40178;53.042;6.406;2023-03-01T00:46:08;-2.20;99.90
54264;DHT22;40178;53.042;6.406;2023-03-01T00:48:35;-2.20;99.90
54264;DHT22;40178;53.042;6.406;2023-03-01T00:51:14;-2.20;99.90
54264;DHT22;40178;53.042;6.406;2023-03-01T00:53:40;-2.20;99.90
54264;DHT22;40178;53.042;6.406;2023-03-01T00:56:08;-2.20;99.90
54264;DHT22;40178;53.042;6.406;2023-03-01T00:58:35;-2.20;99.90
54264;DHT22;40178;53.042;6.406;2023-03-01T01:01:01;-2.30;99.90
54264;DHT22;40178;53.042;6.406;2023-03-01T01:03:32;-2.30;99.90
54264;DHT22;40178;53.042;6.406;2023-03-01T01:05:57;-2.20;99.90
54264;DHT22;40178;53.042;6.406;2023-03-01T01:08:23;-2.20;99.90
54264;DHT22;40178;53.042;6.406;2023-03-01T01:10:49;-2.30;99.90
54264;DHT22;40178;53.042;6.406;2023-03-01T01:13:14;-2.30;99.90
54264;DHT22;40178;53.042;6.406;2023-03-01T01:15:40;-2.30;99.90
54264;DHT22;40178;53.042;6.406;2023-03-01T01:18:06;-2.20;99.90
54264;DHT22;40178;53.042;6.406;2023-03-01T01:20:32;-2.20;99.90
54264;DHT22;40178;53.042;6.406;2023-03-01T01:22:58;-2.20;99.90
54264;DHT22;40178;53.042;6.406;2023-03-01T01:25:23;-2.20;99.90
54264;DHT22;40178;53.042;6.406;2023-03-01T01:27:50;-2.30;99.90
54264;DHT22;40178;53.042;6.406;2023-03-01T01:30:16;-2.40;99.90
54264;DHT22;40178;53.042;6.406;2023-03-01T01:32:42;-2.40;99.90
54264;DHT22;40178;53.042;6.406;2023-03-01T01:35:08;-2.30;99.90
54264;DHT22;40178;53.042;6.406;2023-03-01T01:37:34;-2.30;99.90
54264;DHT22;40178;53.042;6.406;2023-03-01T01:40:00;-2.30;99.90
54264;DHT22;40178;53.042;6.406;2023-03-01T01:42:29;-2.40;99.90
54264;DHT22;40178;53.042;6.406;2023-03-01T01:47:59;-2.50;99.90
54264;DHT22;40178;53.042;6.406;2023-03-01T01:50:26;-2.40;99.90
54264;DHT22;40178;53.042;6.406;2023-03-01T01:52:53;-2.40;99.90
54264;DHT22;40178;53.042;6.406;2023-03-01T01:55:23;-2.30;99.90
54264;DHT22;40178;53.042;6.406;2023-03-01T01:57:54;-2.30;99.90
54264;DHT22;40178;53.042;6.406;2023-03-01T02:00:23;-2.20;99.90
54264;DHT22;40178;53.042;6.406;2023-03-01T02:02:54;-2.20;99.90
54264;DHT22;40178;53.042;6.406;2023-03-01T02:07:56;-2.20;99.90
54264;DHT22;40178;53.042;6.406;2023-03-01T02:10:23;-2.20;99.90
54264;DHT22;40178;53.042;6.406;2023-03-01T02:12:49;-2.20;99.90
54264;DHT22;40178;53.042;6.406;2023-03-01T02:15:16;-2.10;99.90
54264;DHT22;40178;53.042;6.406;2023-03-01T02:17:41;-2.10;99.90
54264;DHT22;40178;53.042;6.406;2023-03-01T02:22:47;-2.20;99.90
54264;DHT22;40178;53.042;6.406;2023-03-01T02:28:05;-2.30;99.90
54264;DHT22;40178;53.042;6.406;2023-03-01T02:30:33;-2.40;99.90
54264;DHT22;40178;53.042;6.406;2023-03-01T02:33:00;-2.40;99.90
54264;DHT22;40178;53.042;6.406;2023-03-01T02:35:38;-2.40;99.90
54264;DHT22;40178;53.042;6.406;2023-03-01T02:38:06;-2.50;99.90
54264;DHT22;40178;53.042;6.406;2023-03-01T02:40:34;-2.50;99.90
54264;DHT22;40178;53.042;6.406;2023-03-01T02:43:01;-1.20;99.90
54264;DHT22;40178;53.042;6.406;2023-03-01T02:45:29;-2.50;99.90
54264;DHT22;40178;53.042;6.406;2023-03-01T02:47:56;-2.40;99.90
54264;DHT22;40178;53.042;6.406;2023-03-01T02:53:12;-2.50;99.90
54264;DHT22;40178;53.042;6.406;2023-03-01T02:55:41;-2.60;99.90
54264;DHT22;40178;53.042;6.406;2023-03-01T02:58:07;-2.50;99.90
54264;DHT22;40178;53.042;6.406;2023-03-01T03:00:39;-2.50;99.90
54264;DHT22;40178;53.042;6.406;2023-03-01T03:03:06;-2.50;99.90
54264;DHT22;40178;53.042;6.406;2023-03-01T03:05:32;-2.60;99.90
54264;DHT22;40178;53.042;6.406;2023-03-01T03:08:00;-2.80;99.90
54264;DHT22;40178;53.042;6.406;2023-03-01T03:10:29;-2.80;99.90
54264;DHT22;40178;53.042;6.406;2023-03-01T03:12:57;-2.80;99.90
54264;DHT22;40178;53.042;6.406;2023-03-01T03:15:24;-2.80;99.90
54264;DHT22;40178;53.042;6.406;2023-03-01T03:17:51;-2.90;99.90
54264;DHT22;40178;53.042;6.406;2023-03-01T03:20:20;-2.90;99.90
54264;DHT22;40178;53.042;6.406;2023-03-01T03:22:47;-2.90;99.90
54264;DHT22;40178;53.042;6.406;2023-03-01T03:25:13;-2.90;99.90
54264;DHT22;40178;53.042;6.406;2023-03-01T03:27:41;-2.90;99.90
54264;DHT22;40178;53.042;6.406;2023-03-01T03:30:09;-2.80;99.90
54264;DHT22;40178;53.042;6.406;2023-03-01T03:32:36;-2.90;99.90
54264;DHT22;40178;53.042;6.406;2023-03-01T03:35:03;-3.00;99.90
54264;DHT22;40178;53.042;6.406;2023-03-01T03:37:36;-3.00;99.90
54264;DHT22;40178;53.042;6.406;2023-03-01T03:40:20;-3.00;99.90
54264;DHT22;40178;53.042;6.406;2023-03-01T03:42:46;-3.00;99.90
54264;DHT22;40178;53.042;6.406;2023-03-01T03:45:11;-3.10;99.90
54264;DHT22;40178;53.042;6.406;2023-03-01T03:47:37;-2.90;99.90
54264;DHT22;40178;53.042;6.406;2023-03-01T03:50:03;-3.00;99.90
54264;DHT22;40178;53.042;6.406;2023-03-01T03:52:28;-3.00;99.90
54264;DHT22;40178;53.042;6.406;2023-03-01T03:54:54;-3.20;99.90
54264;DHT22;40178;53.042;6.406;2023-03-01T03:57:20;-3.20;99.90
54264;DHT22;40178;53.042;6.406;2023-03-01T03:59:46;-3.20;99.90
54264;DHT22;40178;53.042;6.406;2023-03-01T04:02:12;-3.20;99.90
54264;DHT22;40178;53.042;6.406;2023-03-01T04:04:37;-4.40;99.90
54264;DHT22;40178;53.042;6.406;2023-03-01T04:07:03;-3.10;99.90
54264;DHT22;40178;53.042;6.406;2023-03-01T04:09:28;-3.20;99.90
54264;DHT22;40178;53.042;6.406;2023-03-01T04:11:55;-3.20;99.90
54264;DHT22;40178;53.042;6.406;2023-03-01T04:14:21;-3.20;99.90
54264;DHT22;40178;53.042;6.406;2023-03-01T04:16:46;-3.20;99.90
54264;DHT22;40178;53.042;6.406;2023-03-01T04:19:12;-3.30;99.90
54264;DHT22;40178;53.042;6.406;2023-03-01T04:21:40;-3.30;99.90
54264;DHT22;40178;53.042;6.406;2023-03-01T04:24:06;-3.30;99.90
54264;DHT22;40178;53.042;6.406;2023-03-01T04:26:32;-3.30;99.90
54264;DHT22;40178;53.042;6.406;2023-03-01T04:28:57;-3.30;99.90
54264;DHT22;40178;53.042;6.406;2023-03-01T04:31:23;-3.30;99.90
54264;DHT22;40178;53.042;6.406;2023-03-01T04:33:51;-3.30;99.90
54264;DHT22;40178;53.042;6.406;2023-03-01T04:36:19;-3.30;99.90
54264;DHT22;40178;53.042;6.406;2023-03-01T04:38:45;-3.30;99.90
54264;DHT22;40178;53.042;6.406;2023-03-01T04:41:17;-3.30;99.90
54264;DHT22;40178;53.042;6.406;2023-03-01T04:43:43;-3.50;99.90
54264;DHT22;40178;53.042;6.406;2023-03-01T04:46:12;-3.50;99.90
54264;DHT22;40178;53.042;6.406;2023-03-01T04:48:40;-3.50;99.90
54264;DHT22;40178;53.042;6.406;2023-03-01T04:51:07;-3.50;99.90
54264;DHT22;40178;53.042;6.406;2023-03-01T04:53:34;-3.50;99.90
54264;DHT22;40178;53.042;6.406;2023-03-01T04:56:02;-3.60;99.90
54264;DHT22;40178;53.042;6.406;2023-03-01T04:58:28;-3.60;99.90
54264;DHT22;40178;53.042;6.406;2023-03-01T05:00:54;-3.60;99.90
54264;DHT22;40178;53.042;6.406;2023-03-01T05:03:20;-3.60;99.90
54264;DHT22;40178;53.042;6.406;2023-03-01T05:05:48;-3.50;99.90
54264;DHT22;40178;53.042;6.406;2023-03-01T05:08:14;-3.50;99.90
54264;DHT22;40178;53.042;6.406;2023-03-01T05:10:49;-3.60;99.90
54264;DHT22;40178;53.042;6.406;2023-03-01T05:13:15;-3.50;99.90
54264;DHT22;40178;53.042;6.406;2023-03-01T05:15:47;-3.60;99.90
54264;DHT22;40178;53.042;6.406;2023-03-01T05:18:13;-3.60;99.90
54264;DHT22;40178;53.042;6.406;2023-03-01T05:20:39;-3.70;99.90
54264;DHT22;40178;53.042;6.406;2023-03-01T05:23:05;-3.70;99.90
54264;DHT22;40178;53.042;6.406;2023-03-01T05:25:32;-3.70;99.90
54264;DHT22;40178;53.042;6.406;2023-03-01T05:28:02;-3.70;99.90
54264;DHT22;40178;53.042;6.406;2023-03-01T05:30:32;-3.70;99.90
54264;DHT22;40178;53.042;6.406;2023-03-01T05:32:58;-3.60;99.90
54264;DHT22;40178;53.042;6.406;2023-03-01T05:35:24;-3.60;99.90
54264;DHT22;40178;53.042;6.406;2023-03-01T05:37:50;-3.70;99.90
54264;DHT22;40178;53.042;6.406;2023-03-01T05:40:19;-3.90;99.90
54264;DHT22;40178;53.042;6.406;2023-03-01T05:42:51;-3.60;99.90
54264;DHT22;40178;53.042;6.406;2023-03-01T05:45:18;-3.60;99.90
54264;DHT22;40178;53.042;6.406;2023-03-01T05:47:45;-3.60;99.90
54264;DHT22;40178;53.042;6.406;2023-03-01T05:50:20;-3.70;99.90
54264;DHT22;40178;53.042;6.406;2023-03-01T05:52:50;-3.70;99.90
54264;DHT22;40178;53.042;6.406;2023-03-01T05:55:19;-3.70;99.90
54264;DHT22;40178;53.042;6.406;2023-03-01T05:57:45;-3.70;99.90
54264;DHT22;40178;53.042;6.406;2023-03-01T06:00:12;-3.70;99.90
54264;DHT22;40178;53.042;6.406;2023-03-01T06:02:39;-3.80;99.90
54264;DHT22;40178;53.042;6.406;2023-03-01T06:05:06;-3.70;99.90
54264;DHT22;40178;53.042;6.406;2023-03-01T06:07:32;-3.80;99.90
54264;DHT22;40178;53.042;6.406;2023-03-01T06:09:58;-3.80;99.90
54264;DHT22;40178;53.042;6.406;2023-03-01T06:12:23;-4.00;99.90
54264;DHT22;40178;53.042;6.406;2023-03-01T06:14:49;-3.90;99.90
54264;DHT22;40178;53.042;6.406;2023-03-01T06:17:15;-3.90;99.90
54264;DHT22;40178;53.042;6.406;2023-03-01T06:19:41;-3.90;99.90
54264;DHT22;40178;53.042;6.406;2023-03-01T06:22:06;-3.90;99.90
54264;DHT22;40178;53.042;6.406;2023-03-01T06:24:32;-3.80;99.90
54264;DHT22;40178;53.042;6.406;2023-03-01T06:26:58;-3.90;99.90
54264;DHT22;40178;53.042;6.406;2023-03-01T06:29:24;-3.80;99.90
54264;DHT22;40178;53.042;6.406;2023-03-01T06:31:49;-3.90;99.90
54264;DHT22;40178;53.042;6.406;2023-03-01T06:34:15;-3.90;99.90
54264;DHT22;40178;53.042;6.406;2023-03-01T06:36:41;-3.90;99.90
54264;DHT22;40178;53.042;6.406;2023-03-01T06:39:07;-3.90;99.90
54264;DHT22;40178;53.042;6.406;2023-03-01T06:41:32;-3.80;99.90
54264;DHT22;40178;53.042;6.406;2023-03-01T06:43:59;-3.80;99.90
54264;DHT22;40178;53.042;6.406;2023-03-01T06:46:25;-3.70;99.90
54264;DHT22;40178;53.042;6.406;2023-03-01T06:48:50;-3.70;99.90
54264;DHT22;40178;53.042;6.406;2023-03-01T06:51:16;-3.60;99.90
54264;DHT22;40178;53.042;6.406;2023-03-01T06:53:41;-3.60;99.90
54264;DHT22;40178;53.042;6.406;2023-03-01T06:56:07;-3.50;99.90
54264;DHT22;40178;53.042;6.406;2023-03-01T06:58:32;-3.50;99.90
54264;DHT22;40178;53.042;6.406;2023-03-01T07:00:58;-3.50;99.90
54264;DHT22;40178;53.042;6.406;2023-03-01T07:03:24;-3.40;99.90
54264;DHT22;40178;53.042;6.406;2023-03-01T07:05:50;-3.40;99.90
54264;DHT22;40178;53.042;6.406;2023-03-01T07:08:18;-3.40;99.90
54264;DHT22;40178;53.042;6.406;2023-03-01T07:10:43;-3.30;99.90
54264;DHT22;40178;53.042;6.406;2023-03-01T07:13:09;-3.20;99.90
54264;DHT22;40178;53.042;6.406;2023-03-01T07:15:34;-3.20;99.90
54264;DHT22;40178;53.042;6.406;2023-03-01T07:18:00;-3.20;99.90
54264;DHT22;40178;53.042;6.406;2023-03-01T07:20:26;-3.10;99.90
54264;DHT22;40178;53.042;6.406;2023-03-01T07:22:52;-1.30;99.90
54264;DHT22;40178;53.042;6.406;2023-03-01T07:25:18;-3.00;99.90
54264;DHT22;40178;53.042;6.406;2023-03-01T07:27:44;-2.90;99.90
54264;DHT22;40178;53.042;6.406;2023-03-01T07:30:13;-2.80;99.90
54264;DHT22;40178;53.042;6.406;2023-03-01T07:32:39;-2.60;99.90
54264;DHT22;40178;53.042;6.406;2023-03-01T07:35:05;-2.50;99.90
54264;DHT22;40178;53.042;6.406;2023-03-01T07:37:31;-2.50;99.90
54264;DHT22;40178;53.042;6.406;2023-03-01T07:39:56;-2.40;99.90
54264;DHT22;40178;53.042;6.406;2023-03-01T07:42:23;-2.40;99.90
54264;DHT22;40178;53.042;6.406;2023-03-01T07:44:48;-2.20;99.90
54264;DHT22;40178;53.042;6.406;2023-03-01T07:47:14;-2.10;99.90
54264;DHT22;40178;53.042;6.406;2023-03-01T07:49:39;-2.00;99.90
54264;DHT22;40178;53.042;6.406;2023-03-01T07:52:05;-1.90;99.90
54264;DHT22;40178;53.042;6.406;2023-03-01T07:54:31;-1.80;99.90
54264;DHT22;40178;53.042;6.406;2023-03-01T07:56:57;0.00;99.90
54264;DHT22;40178;53.042;6.406;2023-03-01T07:59:23;-1.60;99.90
54264;DHT22;40178;53.042;6.406;2023-03-01T08:01:54;-1.40;99.90
54264;DHT22;40178;53.042;6.406;2023-03-01T08:04:20;-1.30;99.90
54264;DHT22;40178;53.042;6.406;2023-03-01T08:06:46;-1.10;99.90
54264;DHT22;40178;53.042;6.406;2023-03-01T08:09:11;-0.90;99.90
54264;DHT22;40178;53.042;6.406;2023-03-01T08:11:37;-0.70;99.90
54264;DHT22;40178;53.042;6.406;2023-03-01T08:14:02;-0.60;99.90
54264;DHT22;40178;53.042;6.406;2023-03-01T08:16:29;-0.50;99.90
54264;DHT22;40178;53.042;6.406;2023-03-01T08:18:54;-0.30;99.90
54264;DHT22;40178;53.042;6.406;2023-03-01T08:21:22;-0.20;99.90
54264;DHT22;40178;53.042;6.406;2023-03-01T08:23:47;-0.10;99.90
54264;DHT22;40178;53.042;6.406;2023-03-01T08:26:22;0.00;99.90
54264;DHT22;40178;53.042;6.406;2023-03-01T08:28:49;0.00;99.90
54264;DHT22;40178;53.042;6.406;2023-03-01T08:31:21;0.10;99.90
54264;DHT22;40178;53.042;6.406;2023-03-01T08:33:49;0.30;99.90
54264;DHT22;40178;53.042;6.406;2023-03-01T08:36:21;0.30;99.90
54264;DHT22;40178;53.042;6.406;2023-03-01T08:38:47;0.40;99.90
54264;DHT22;40178;53.042;6.406;2023-03-01T08:41:13;0.50;99.90
54264;DHT22;40178;53.042;6.406;2023-03-01T08:43:39;0.60;99.90
54264;DHT22;40178;53.042;6.406;2023-03-01T08:46:05;0.60;99.90
54264;DHT22;40178;53.042;6.406;2023-03-01T08:48:31;0.70;99.90
54264;DHT22;40178;53.042;6.406;2023-03-01T08:50:56;0.90;99.90
54264;DHT22;40178;53.042;6.406;2023-03-01T08:53:22;1.00;99.90
54264;DHT22;40178;53.042;6.406;2023-03-01T08:55:47;1.00;99.90
54264;DHT22;40178;53.042;6.406;2023-03-01T08:58:13;1.20;99.90
54264;DHT22;40178;53.042;6.406;2023-03-01T09:00:39;1.20;99.90
54264;DHT22;40178;53.042;6.406;2023-03-01T09:03:05;1.30;99.90
54264;DHT22;40178;53.042;6.406;2023-03-01T09:05:32;1.60;99.90
54264;DHT22;40178;53.042;6.406;2023-03-01T09:07:58;1.60;99.90
54264;DHT22;40178;53.042;6.406;2023-03-01T09:10:24;1.70;99.90
54264;DHT22;40178;53.042;6.406;2023-03-01T09:12:50;1.70;99.90
54264;DHT22;40178;53.042;6.406;2023-03-01T09:15:16;1.80;99.90
54264;DHT22;40178;53.042;6.406;2023-03-01T09:17:42;1.90;99.90
54264;DHT22;40178;53.042;6.406;2023-03-01T09:20:08;2.10;99.90
54264;DHT22;40178;53.042;6.406;2023-03-01T09:22:34;2.10;99.90
54264;DHT22;40178;53.042;6.406;2023-03-01T09:25:00;2.10;99.90
54264;DHT22;40178;53.042;6.406;2023-03-01T09:27:26;2.20;99.90
54264;DHT22;40178;53.042;6.406;2023-03-01T09:29:52;2.40;99.90
54264;DHT22;40178;53.042;6.406;2023-03-01T09:32:17;2.60;99.90
54264;DHT22;40178;53.042;6.406;2023-03-01T09:34:43;2.60;99.90
54264;DHT22;40178;53.042;6.406;2023-03-01T09:37:29;2.80;99.90
54264;DHT22;40178;53.042;6.406;2023-03-01T09:39:55;2.80;99.90
54264;DHT22;40178;53.042;6.406;2023-03-01T09:42:20;3.00;99.90
54264;DHT22;40178;53.042;6.406;2023-03-01T09:44:51;3.00;99.90
54264;DHT22;40178;53.042;6.406;2023-03-01T09:47:22;3.10;99.90
54264;DHT22;40178;53.042;6.406;2023-03-01T09:52:41;3.30;99.90
54264;DHT22;40178;53.042;6.406;2023-03-01T09:55:11;3.40;99.90
54264;DHT22;40178;53.042;6.406;2023-03-01T09:58:00;3.30;99.90
54264;DHT22;40178;53.042;6.406;2023-03-01T10:00:42;3.50;99.90
54264;DHT22;40178;53.042;6.406;2023-03-01T10:03:16;3.50;99.90
54264;DHT22;40178;53.042;6.406;2023-03-01T10:06:44;3.60;98.20
54264;DHT22;40178;53.042;6.406;2023-03-01T10:08:57;3.70;97.10
54264;DHT22;40178;53.042;6.406;2023-03-01T10:11:45;3.80;90.30
54264;DHT22;40178;53.042;6.406;2023-03-01T10:14:44;4.00;93.30
54264;DHT22;40178;53.042;6.406;2023-03-01T10:17:33;4.00;50.40
54264;DHT22;40178;53.042;6.406;2023-03-01T10:20:22;4.10;12.20
54264;DHT22;40178;53.042;6.406;2023-03-01T10:22:48;4.10;27.20
54264;DHT22;40178;53.042;6.406;2023-03-01T10:26:04;4.20;56.90
54264;DHT22;40178;53.042;6.406;2023-03-01T10:29:11;4.20;68.40
54264;DHT22;40178;53.042;6.406;2023-03-01T10:31:38;4.30;42.10
54264;DHT22;40178;53.042;6.406;2023-03-01T10:34:14;4.30;53.80
54264;DHT22;40178;53.042;6.406;2023-03-01T10:36:40;4.40;47.10
54264;DHT22;40178;53.042;6.406;2023-03-01T10:39:16;4.40;7.60
54264;DHT22;40178;53.042;6.406;2023-03-01T10:41:58;4.50;1.00
54264;DHT22;40178;53.042;6.406;2023-03-01T10:44:45;4.60;1.00
54264;DHT22;40178;53.042;6.406;2023-03-01T10:47:31;4.60;2.10
54264;DHT22;40178;53.042;6.406;2023-03-01T10:50:03;4.80;1.00
54264;DHT22;40178;53.042;6.406;2023-03-01T10:52:35;4.80;1.00
54264;DHT22;40178;53.042;6.406;2023-03-01T10:55:26;4.90;1.00
54264;DHT22;40178;53.042;6.406;2023-03-01T10:58:17;5.00;99.90
54264;DHT22;40178;53.042;6.406;2023-03-01T11:00:55;5.00;99.90
54264;DHT22;40178;53.042;6.406;2023-03-01T11:06:03;5.10;99.90
54264;DHT22;40178;53.042;6.406;2023-03-01T11:11:23;5.10;99.90
54264;DHT22;40178;53.042;6.406;2023-03-01T11:16:31;5.20;99.90
54264;DHT22;40178;53.042;6.406;2023-03-01T11:19:00;5.30;99.90
54264;DHT22;40178;53.042;6.406;2023-03-01T11:21:28;5.30;99.90
54264;DHT22;40178;53.042;6.406;2023-03-01T11:23:58;5.30;99.90
54264;DHT22;40178;53.042;6.406;2023-03-01T11:26:25;5.30;99.90
54264;DHT22;40178;53.042;6.406;2023-03-01T11:28:54;5.30;99.90
54264;DHT22;40178;53.042;6.406;2023-03-01T11:31:22;5.40;99.90
54264;DHT22;40178;53.042;6.406;2023-03-01T11:33:50;5.30;99.90
54264;DHT22;40178;53.042;6.406;2023-03-01T11:38:50;5.30;99.90
54264;DHT22;40178;53.042;6.406;2023-03-01T11:41:20;5.30;99.90
54264;DHT22;40178;53.042;6.406;2023-03-01T11:44:41;5.30;99.90
54264;DHT22;40178;53.042;6.406;2023-03-01T11:47:11;5.20;99.90
54264;DHT22;40178;53.042;6.406;2023-03-01T11:49:52;5.30;99.90
54264;DHT22;40178;53.042;6.406;2023-03-01T12:06:10;5.60;99.90
54264;DHT22;40178;53.042;6.406;2023-03-01T12:08:56;5.70;99.90
54264;DHT22;40178;53.042;6.406;2023-03-01T12:22:20;5.70;99.90
54264;DHT22;40178;53.042;6.406;2023-03-01T12:30:39;5.60;99.90
54264;DHT22;40178;53.042;6.406;2023-03-01T12:38:50;5.70;99.90
54264;DHT22;40178;53.042;6.406;2023-03-01T12:41:33;5.70;99.90
54264;DHT22;40178;53.042;6.406;2023-03-01T12:44:08;5.70;99.90
54264;DHT22;40178;53.042;6.406;2023-03-01T12:47:41;5.80;99.90
54264;DHT22;40178;53.042;6.406;2023-03-01T12:49:55;5.80;99.90
54264;DHT22;40178;53.042;6.406;2023-03-01T12:54:53;5.80;99.90
54264;DHT22;40178;53.042;6.406;2023-03-01T12:57:29;5.80;99.90
54264;DHT22;40178;53.042;6.406;2023-03-01T13:00:31;5.80;99.90
54264;DHT22;40178;53.042;6.406;2023-03-01T13:03:19;5.80;99.90
54264;DHT22;40178;53.042;6.406;2023-03-01T13:06:12;5.80;99.90
54264;DHT22;40178;53.042;6.406;2023-03-01T13:08:49;5.80;99.90
54264;DHT22;40178;53.042;6.406;2023-03-01T13:11:20;5.90;99.90
54264;DHT22;40178;53.042;6.406;2023-03-01T13:13:46;5.80;99.90
54264;DHT22;40178;53.042;6.406;2023-03-01T13:19:19;5.80;99.90
54264;DHT22;40178;53.042;6.406;2023-03-01T13:21:46;5.80;99.90
54264;DHT22;40178;53.042;6.406;2023-03-01T13:24:40;5.90;99.90
54264;DHT22;40178;53.042;6.406;2023-03-01T13:29:47;5.90;99.90
54264;DHT22;40178;53.042;6.406;2023-03-01T13:32:27;5.90;99.90
54264;DHT22;40178;53.042;6.406;2023-03-01T13:35:41;5.90;99.90
54264;DHT22;40178;53.042;6.406;2023-03-01T13:41:04;5.90;99.90
54264;DHT22;40178;53.042;6.406;2023-03-01T13:45:55;5.90;99.90
54264;DHT22;40178;53.042;6.406;2023-03-01T13:48:26;6.00;99.90
54264;DHT22;40178;53.042;6.406;2023-03-01T13:50:55;5.90;99.90
54264;DHT22;40178;53.042;6.406;2023-03-01T13:53:25;5.90;99.90
54264;DHT22;40178;53.042;6.406;2023-03-01T13:55:55;5.90;99.90
54264;DHT22;40178;53.042;6.406;2023-03-01T13:58:28;5.90;99.90
54264;DHT22;40178;53.042;6.406;2023-03-01T14:03:23;5.90;99.90
54264;DHT22;40178;53.042;6.406;2023-03-01T14:08:34;5.90;99.90
54264;DHT22;40178;53.042;6.406;2023-03-01T14:19:26;5.90;99.90
54264;DHT22;40178;53.042;6.406;2023-03-01T14:24:39;6.00;99.90
54264;DHT22;40178;53.042;6.406;2023-03-01T14:27:11;6.00;99.90
54264;DHT22;40178;53.042;6.406;2023-03-01T14:29:39;5.90;99.90
54264;DHT22;40178;53.042;6.406;2023-03-01T14:32:17;6.00;99.90
54264;DHT22;40178;53.042;6.406;2023-03-01T14:34:46;6.00;99.90
54264;DHT22;40178;53.042;6.406;2023-03-01T14:37:25;6.00;99.90
54264;DHT22;40178;53.042;6.406;2023-03-01T14:39:51;6.00;99.90
54264;DHT22;40178;53.042;6.406;2023-03-01T14:42:18;6.00;99.90
54264;DHT22;40178;53.042;6.406;2023-03-01T14:44:47;6.00;99.90
54264;DHT22;40178;53.042;6.406;2023-03-01T14:47:29;6.00;99.90
54264;DHT22;40178;53.042;6.406;2023-03-01T14:50:01;6.00;99.90
54264;DHT22;40178;53.042;6.406;2023-03-01T14:52:48;6.10;1.00
54264;DHT22;40178;53.042;6.406;2023-03-01T14:55:21;6.10;1.00
54264;DHT22;40178;53.042;6.406;2023-03-01T14:57:49;6.20;99.90
54264;DHT22;40178;53.042;6.406;2023-03-01T15:00:20;6.10;1.00
54264;DHT22;40178;53.042;6.406;2023-03-01T15:02:48;6.10;1.00
54264;DHT22;40178;53.042;6.406;2023-03-01T15:05:14;6.10;1.00
54264;DHT22;40178;53.042;6.406;2023-03-01T15:07:42;6.10;1.00
54264;DHT22;40178;53.042;6.406;2023-03-01T15:10:32;6.10;1.00
54264;DHT22;40178;53.042;6.406;2023-03-01T15:13:21;6.00;1.00
54264;DHT22;40178;53.042;6.406;2023-03-01T15:15:48;5.90;1.00
54264;DHT22;40178;53.042;6.406;2023-03-01T15:18:26;6.10;1.00
54264;DHT22;40178;53.042;6.406;2023-03-01T15:20:52;6.10;1.00
54264;DHT22;40178;53.042;6.406;2023-03-01T15:23:29;6.00;1.00
54264;DHT22;40178;53.042;6.406;2023-03-01T15:25:56;6.00;1.00
54264;DHT22;40178;53.042;6.406;2023-03-01T15:28:33;5.90;1.00
54264;DHT22;40178;53.042;6.406;2023-03-01T15:31:19;5.90;1.00
54264;DHT22;40178;53.042;6.406;2023-03-01T15:33:46;5.90;1.00
54264;DHT22;40178;53.042;6.406;2023-03-01T15:36:45;6.00;1.00
54264;DHT22;40178;53.042;6.406;2023-03-01T15:41:56;6.00;1.00
54264;DHT22;40178;53.042;6.406;2023-03-01T15:44:30;6.10;1.00
54264;DHT22;40178;53.042;6.406;2023-03-01T15:46:56;6.00;1.00
54264;DHT22;40178;53.042;6.406;2023-03-01T15:49:34;6.10;1.00
54264;DHT22;40178;53.042;6.406;2023-03-01T15:52:01;6.10;1.00
54264;DHT22;40178;53.042;6.406;2023-03-01T15:54:27;6.00;1.00
54264;DHT22;40178;53.042;6.406;2023-03-01T15:56:53;6.00;1.00
54264;DHT22;40178;53.042;6.406;2023-03-01T15:59:19;5.90;1.00
54264;DHT22;40178;53.042;6.406;2023-03-01T16:01:47;5.90;1.00
54264;DHT22;40178;53.042;6.406;2023-03-01T16:04:16;5.90;1.00
54264;DHT22;40178;53.042;6.406;2023-03-01T16:06:50;5.90;1.00
54264;DHT22;40178;53.042;6.406;2023-03-01T16:09:24;5.90;1.00
54264;DHT22;40178;53.042;6.406;2023-03-01T16:11:52;5.90;1.00
54264;DHT22;40178;53.042;6.406;2023-03-01T16:14:18;5.90;1.00
54264;DHT22;40178;53.042;6.406;2023-03-01T16:16:44;5.80;1.00
54264;DHT22;40178;53.042;6.406;2023-03-01T16:19:09;5.80;1.00
54264;DHT22;40178;53.042;6.406;2023-03-01T16:21:36;5.80;1.00
54264;DHT22;40178;53.042;6.406;2023-03-01T16:24:02;5.70;1.00
54264;DHT22;40178;53.042;6.406;2023-03-01T16:26:27;5.70;1.00
54264;DHT22;40178;53.042;6.406;2023-03-01T16:28:57;5.60;1.00
54264;DHT22;40178;53.042;6.406;2023-03-01T16:31:22;5.60;1.00
54264;DHT22;40178;53.042;6.406;2023-03-01T16:33:49;5.50;7.40
54264;DHT22;40178;53.042;6.406;2023-03-01T16:36:19;5.40;21.80
54264;DHT22;40178;53.042;6.406;2023-03-01T16:38:44;5.20;34.70
54264;DHT22;40178;53.042;6.406;2023-03-01T16:41:15;5.10;37.20
54264;DHT22;40178;53.042;6.406;2023-03-01T16:43:41;5.00;50.60
54264;DHT22;40178;53.042;6.406;2023-03-01T16:46:18;5.00;55.90
54264;DHT22;40178;53.042;6.406;2023-03-01T16:48:45;4.80;61.70
54264;DHT22;40178;53.042;6.406;2023-03-01T16:51:11;4.70;66.00
54264;DHT22;40178;53.042;6.406;2023-03-01T16:53:38;4.60;69.20
54264;DHT22;40178;53.042;6.406;2023-03-01T16:56:09;4.50;71.30
54264;DHT22;40178;53.042;6.406;2023-03-01T16:58:36;4.40;75.80
54264;DHT22;40178;53.042;6.406;2023-03-01T17:01:17;4.30;77.00
54264;DHT22;40178;53.042;6.406;2023-03-01T17:03:44;4.30;78.20
54264;DHT22;40178;53.042;6.406;2023-03-01T17:06:14;4.30;79.60
54264;DHT22;40178;53.042;6.406;2023-03-01T17:08:40;4.30;80.00
54264;DHT22;40178;53.042;6.406;2023-03-01T17:11:10;4.30;80.20
54264;DHT22;40178;53.042;6.406;2023-03-01T17:13:36;4.30;79.10
54264;DHT22;40178;53.042;6.406;2023-03-01T17:16:04;4.30;77.60
54264;DHT22;40178;53.042;6.406;2023-03-01T17:18:31;4.40;76.40
54264;DHT22;40178;53.042;6.406;2023-03-01T17:20:57;4.20;75.20
54264;DHT22;40178;53.042;6.406;2023-03-01T17:23:22;4.40;69.20
54264;DHT22;40178;53.042;6.406;2023-03-01T17:25:48;4.40;70.10
54264;DHT22;40178;53.042;6.406;2023-03-01T17:28:14;4.30;70.90
54264;DHT22;40178;53.042;6.406;2023-03-01T17:30:43;4.10;73.30
54264;DHT22;40178;53.042;6.406;2023-03-01T17:33:10;4.00;74.70